Time;durP1;ratioP1;P1;durP2;ratioP2;P2;SDS_P1;SDS_P2;PMS_P1;PMS_P2;Temp;Humidity;BMP_temperature;BMP_pressure;BME280_temperature;BME280_humidity;BME280_pressure;Samples;Min_cycle;Max_cycle;Signal;HPM_P1;HPM_P2
2023/08/10 00:02:16;;;;;;;3.80;1.40;;;14.80;99.90;;;;;;5094063;28;20179;-63
2023/08/10 00:04:42;;;;;;;4.00;1.20;;;14.70;99.90;;;;;;5080898;28;20691;-63
2023/08/10 00:07:07;;;;;;;2.07;1.13;;;14.60;99.90;;;;;;5076430;28;20215;-63
2023/08/10 00:09:33;;;;;;;13.23;1.23;;;14.50;99.90;;;;;;5089239;28;20205;-63
2023/08/10 00:11:59;;;;;;;2.83;1.53;;;14.50;99.90;;;;;;5096453;28;20189;-64
2023/08/10 00:14:24;;;;;;;7.40;1.30;;;14.40;99.90;;;;;;5076855;28;20181;-64
2023/08/10 00:16:50;;;;;;;2.60;1.00;;;14.40;99.90;;;;;;5082763;28;20260;-64
2023/08/10 00:19:15;;;;;;;1.80;0.90;;;14.30;99.90;;;;;;5077886;28;20185;-64
2023/08/10 00:21:41;;;;;;;2.07;0.90;;;14.30;99.90;;;;;;5071379;28;20185;-64
2023/08/10 00:24:07;;;;;;;2.37;1.37;;;14.30;99.90;;;;;;5070842;28;20189;-64
2023/08/10 00:26:32;;;;;;;2.10;0.97;;;14.20;99.90;;;;;;5078207;28;20526;-64
2023/08/10 00:28:58;;;;;;;2.90;1.50;;;14.00;99.90;;;;;;5079731;28;20208;-64
2023/08/10 00:31:24;;;;;;;2.83;0.93;;;13.80;99.90;;;;;;5079284;28;20291;-64
2023/08/10 00:33:49;;;;;;;1.90;1.00;;;13.80;99.90;;;;;;5081703;28;20196;-63
2023/08/10 00:36:15;;;;;;;3.00;1.53;;;13.70;99.90;;;;;;5076768;28;20181;-64
2023/08/10 00:38:41;;;;;;;2.60;1.20;;;13.70;99.90;;;;;;5083748;28;20187;-64
2023/08/10 00:41:08;;;;;;;3.57;1.87;;;13.70;99.90;;;;;;5086687;28;20181;-63
2023/08/10 00:43:33;;;;;;;2.70;1.23;;;13.60;99.90;;;;;;5081875;28;20505;-63
2023/08/10 00:46:00;;;;;;;2.27;1.40;;;13.70;99.90;;;;;;5081683;28;21439;-63
2023/08/10 00:48:26;;;;;;;8.13;2.23;;;13.70;99.90;;;;;;5080460;28;20195;-63
2023/08/10 00:50:53;;;;;;;1.97;1.00;;;13.60;99.90;;;;;;5094762;28;20465;-64
2023/08/10 00:53:19;;;;;;;2.50;1.23;;;13.60;99.90;;;;;;5097448;28;20474;-64
2023/08/10 00:55:51;;;;;;;2.80;1.40;;;13.50;99.90;;;;;;5094478;28;20521;-64
2023/08/10 00:58:20;;;;;;;3.40;1.80;;;13.50;99.90;;;;;;5109034;28;20726;-63
2023/08/10 01:00:46;;;;;;;4.23;1.40;;;13.50;99.90;;;;;;5082934;28;20431;-64
2023/08/10 01:03:12;;;;;;;3.90;1.80;;;13.40;99.90;;;;;;5083848;28;20423;-63
2023/08/10 01:05:52;;;;;;;1.87;1.17;;;13.30;99.90;;;;;;5076845;28;20439;-63
2023/08/10 01:08:55;;;;;;;3.73;1.30;;;13.30;99.90;;;;;;5082226;28;20417;-63
2023/08/10 01:11:33;;;;;;;2.07;0.93;;;13.30;99.90;;;;;;5071570;28;20463;-63
2023/08/10 01:14:19;;;;;;;3.00;1.67;;;13.30;99.90;;;;;;5081842;28;20527;-63
2023/08/10 01:16:46;;;;;;;15.23;2.17;;;13.20;99.90;;;;;;5079462;28;20819;-63
2023/08/10 01:19:32;;;;;;;6.10;1.20;;;13.20;99.90;;;;;;5070775;28;20434;-63
2023/08/10 01:22:50;;;;;;;2.33;1.07;;;13.20;99.90;;;;;;5079545;28;20522;-63
2023/08/10 01:25:16;;;;;;;4.30;1.40;;;13.10;99.90;;;;;;5036438;28;20515;-63
2023/08/10 01:27:43;;;;;;;2.07;0.80;;;13.10;99.90;;;;;;5086403;28;20467;-64
2023/08/10 01:30:09;;;;;;;3.97;1.47;;;13.10;99.90;;;;;;5074846;28;20462;-64
2023/08/10 01:32:35;;;;;;;2.83;1.63;;;13.10;99.90;;;;;;5074352;28;20423;-63
2023/08/10 01:35:05;;;;;;;3.10;1.40;;;13.20;99.90;;;;;;5078538;28;20434;-64
2023/08/10 01:37:31;;;;;;;2.87;1.37;;;13.00;99.90;;;;;;5074542;28;20566;-64
2023/08/10 01:39:56;;;;;;;2.37;1.20;;;13.00;99.90;;;;;;5085240;28;20471;-63
2023/08/10 01:42:24;;;;;;;1.97;1.00;;;12.90;99.90;;;;;;5076452;28;20460;-64
2023/08/10 01:44:50;;;;;;;2.63;1.30;;;12.90;99.90;;;;;;5088406;28;20196;-64
2023/08/10 01:47:33;;;;;;;3.30;1.70;;;12.90;99.90;;;;;;5087333;28;20430;-64
2023/08/10 01:50:02;;;;;;;3.07;1.50;;;12.80;99.90;;;;;;5103706;28;20521;-63
2023/08/10 01:52:33;;;;;;;2.63;1.30;;;12.80;99.90;;;;;;5094930;28;20420;-63
2023/08/10 01:54:59;;;;;;;2.23;0.97;;;12.80;99.90;;;;;;5073433;28;20890;-63
2023/08/10 01:57:28;;;;;;;3.10;1.03;;;12.70;99.90;;;;;;5081784;28;20775;-64
2023/08/10 01:59:54;;;;;;;3.07;1.50;;;12.70;99.90;;;;;;5095306;28;20437;-63
2023/08/10 02:02:19;;;;;;;1.83;1.10;;;12.70;99.90;;;;;;5098816;28;20417;-63
2023/08/10 02:04:45;;;;;;;2.10;1.13;;;12.60;99.90;;;;;;5083334;28;20187;-64
2023/08/10 02:07:11;;;;;;;2.83;1.13;;;12.70;99.90;;;;;;5089822;28;20189;-64
2023/08/10 02:09:37;;;;;;;2.30;1.07;;;12.60;99.90;;;;;;5082231;28;20499;-63
2023/08/10 02:12:03;;;;;;;1.67;0.90;;;12.50;99.90;;;;;;5089468;28;20196;-63
2023/08/10 02:14:29;;;;;;;2.20;1.17;;;12.50;99.90;;;;;;5085364;28;20423;-63
2023/08/10 02:16:55;;;;;;;3.63;1.53;;;12.50;99.90;;;;;;5077838;28;20426;-63
2023/08/10 02:19:20;;;;;;;1.50;0.80;;;12.40;99.90;;;;;;5073844;28;20181;-64
2023/08/10 02:21:46;;;;;;;2.33;1.30;;;12.50;99.90;;;;;;5081559;28;20195;-64
2023/08/10 02:24:11;;;;;;;1.77;0.90;;;12.50;99.90;;;;;;5092395;28;20576;-63
2023/08/10 02:26:37;;;;;;;2.00;1.10;;;12.50;99.90;;;;;;5081000;28;20210;-63
2023/08/10 02:29:03;;;;;;;2.67;1.40;;;12.40;99.90;;;;;;5086803;28;20185;-64
2023/08/10 02:31:28;;;;;;;2.80;1.50;;;12.40;99.90;;;;;;5080173;28;20239;-63
2023/08/10 02:33:54;;;;;;;3.33;1.53;;;12.40;99.90;;;;;;5084279;28;20208;-63
2023/08/10 02:36:20;;;;;;;3.17;2.10;;;12.40;99.90;;;;;;5093868;28;20180;-63
2023/08/10 02:38:45;;;;;;;1.50;0.80;;;12.40;99.90;;;;;;5091401;28;20181;-63
2023/08/10 02:41:11;;;;;;;3.37;1.50;;;12.40;99.90;;;;;;5079965;28;20184;-63
2023/08/10 02:43:37;;;;;;;1.90;0.80;;;12.40;99.90;;;;;;5079083;28;20193;-63
2023/08/10 02:46:02;;;;;;;1.80;1.10;;;12.40;99.90;;;;;;5089178;28;20202;-63
2023/08/10 02:48:28;;;;;;;8.60;1.43;;;12.40;99.90;;;;;;5093235;28;20183;-63
2023/08/10 02:50:54;;;;;;;1.80;1.17;;;12.40;99.90;;;;;;5080417;28;20679;-63
2023/08/10 02:53:20;;;;;;;2.57;1.30;;;12.40;99.90;;;;;;5086225;28;20535;-63
2023/08/10 02:55:46;;;;;;;2.07;1.17;;;12.30;99.90;;;;;;5072672;28;20639;-63
2023/08/10 02:58:11;;;;;;;2.10;1.27;;;12.30;99.90;;;;;;5086151;28;20448;-63
2023/08/10 03:00:37;;;;;;;2.80;1.57;;;12.40;99.90;;;;;;5073081;28;20185;-63
2023/08/10 03:03:04;;;;;;;2.97;1.70;;;12.40;99.90;;;;;;5073068;28;20498;-63
2023/08/10 03:05:30;;;;;;;2.67;1.50;;;12.40;99.90;;;;;;5079109;28;20184;-63
2023/08/10 03:07:55;;;;;;;2.33;1.10;;;12.40;99.90;;;;;;5093220;28;21004;-63
2023/08/10 03:10:21;;;;;;;2.90;1.13;;;12.50;99.90;;;;;;5099247;28;20552;-63
2023/08/10 03:12:47;;;;;;;1.93;1.00;;;12.50;99.90;;;;;;5085653;28;20615;-63
2023/08/10 03:15:12;;;;;;;3.13;1.70;;;12.50;99.90;;;;;;5080438;28;20200;-63
2023/08/10 03:17:39;;;;;;;4.40;1.83;;;12.50;99.90;;;;;;5074639;28;20185;-63
2023/08/10 03:20:12;;;;;;;2.00;1.47;;;12.40;99.90;;;;;;5072807;28;20576;-63
2023/08/10 03:22:39;;;;;;;2.70;1.53;;;12.50;99.90;;;;;;5076579;28;20470;-63
2023/08/10 03:25:05;;;;;;;2.90;1.50;;;12.40;99.90;;;;;;5083991;28;21056;-63
2023/08/10 03:27:30;;;;;;;3.80;2.20;;;12.40;99.90;;;;;;5086747;28;20517;-63
2023/08/10 03:29:56;;;;;;;2.73;1.30;;;12.40;99.90;;;;;;5081537;28;20545;-63
2023/08/10 03:32:22;;;;;;;2.27;1.20;;;12.40;99.90;;;;;;5079070;28;20200;-63
2023/08/10 03:34:47;;;;;;;2.07;1.00;;;12.40;99.90;;;;;;5078417;28;20223;-63
2023/08/10 03:37:13;;;;;;;3.27;1.50;;;12.40;99.90;;;;;;5087583;28;20180;-63
2023/08/10 03:39:38;;;;;;;3.70;1.87;;;12.30;99.90;;;;;;5083630;28;20854;-63
2023/08/10 03:42:04;;;;;;;3.13;1.70;;;12.30;99.90;;;;;;5085381;28;20180;-63
2023/08/10 03:44:30;;;;;;;2.53;1.30;;;12.30;99.90;;;;;;5082456;28;20192;-65
2023/08/10 03:46:55;;;;;;;2.63;1.50;;;12.20;99.90;;;;;;5088790;28;20536;-65
2023/08/10 03:49:22;;;;;;;2.10;1.00;;;12.20;99.90;;;;;;5098998;28;20187;-65
2023/08/10 03:51:50;;;;;;;2.50;1.33;;;12.10;99.90;;;;;;5095639;28;20210;-63
2023/08/10 03:54:16;;;;;;;3.73;1.30;;;12.10;99.90;;;;;;5070345;28;20501;-63
2023/08/10 03:56:42;;;;;;;4.73;1.30;;;12.20;99.90;;;;;;5077416;28;20442;-63
2023/08/10 03:59:08;;;;;;;2.97;1.63;;;12.00;99.90;;;;;;5087096;28;20478;-63
2023/08/10 04:01:34;;;;;;;2.93;1.53;;;12.00;99.90;;;;;;5090093;28;20262;-63
2023/08/10 04:04:00;;;;;;;3.37;1.40;;;12.00;99.90;;;;;;5099051;28;20426;-63
2023/08/10 04:06:26;;;;;;;2.83;1.20;;;11.90;99.90;;;;;;5088505;28;20238;-63
2023/08/10 04:08:53;;;;;;;2.50;1.03;;;11.90;99.90;;;;;;5081150;28;20574;-63
2023/08/10 04:11:19;;;;;;;3.00;1.23;;;11.90;99.90;;;;;;5078036;28;20514;-63
2023/08/10 04:13:46;;;;;;;2.17;1.07;;;11.90;99.90;;;;;;5070732;28;20866;-63
2023/08/10 04:16:11;;;;;;;2.30;1.40;;;11.90;99.90;;;;;;5085016;28;20803;-63
2023/08/10 04:18:37;;;;;;;5.80;1.40;;;11.80;99.90;;;;;;5072978;28;20419;-63
2023/08/10 04:21:03;;;;;;;3.90;1.60;;;11.80;99.90;;;;;;5084868;28;20536;-63
2023/08/10 04:23:28;;;;;;;3.70;1.40;;;11.80;99.90;;;;;;5079467;28;20217;-64
2023/08/10 04:25:54;;;;;;;2.93;1.40;;;11.70;99.90;;;;;;5087943;28;20209;-64
2023/08/10 04:28:19;;;;;;;2.03;1.23;;;11.80;99.90;;;;;;5078576;28;20229;-64
2023/08/10 04:30:45;;;;;;;2.30;1.30;;;11.80;99.90;;;;;;5076903;28;20205;-64
2023/08/10 04:33:11;;;;;;;2.33;1.23;;;11.90;99.90;;;;;;5070223;28;20549;-64
2023/08/10 04:35:36;;;;;;;1.87;1.20;;;11.80;99.90;;;;;;5076136;28;20798;-64
2023/08/10 04:38:03;;;;;;;2.10;1.00;;;11.80;99.90;;;;;;5098890;28;20179;-64
2023/08/10 04:40:29;;;;;;;2.87;1.30;;;11.80;99.90;;;;;;5091201;28;20663;-64
2023/08/10 04:42:55;;;;;;;7.03;2.03;;;11.80;99.90;;;;;;5090520;28;20493;-64
2023/08/10 04:45:20;;;;;;;3.13;1.30;;;11.90;99.90;;;;;;5072769;28;20260;-64
2023/08/10 04:47:46;;;;;;;1.90;1.27;;;11.90;99.90;;;;;;5075422;28;20541;-64
2023/08/10 04:50:12;;;;;;;2.00;1.27;;;11.90;99.90;;;;;;5101649;28;20200;-64
2023/08/10 04:52:38;;;;;;;3.57;1.60;;;11.90;99.90;;;;;;5079991;28;20430;-64
2023/08/10 04:55:05;;;;;;;4.83;1.10;;;11.90;99.90;;;;;;5086440;28;20502;-64
2023/08/10 04:57:31;;;;;;;3.40;1.50;;;11.90;99.90;;;;;;5070468;28;20468;-64
2023/08/10 04:59:56;;;;;;;5.00;1.53;;;12.00;99.90;;;;;;5073737;28;20948;-64
2023/08/10 05:02:22;;;;;;;3.27;1.33;;;12.00;99.90;;;;;;5081164;28;20426;-64
2023/08/10 05:04:48;;;;;;;2.27;1.03;;;12.00;99.90;;;;;;5075235;28;20211;-64
2023/08/10 05:07:14;;;;;;;3.60;1.47;;;12.00;99.90;;;;;;5100692;28;20190;-64
2023/08/10 05:09:39;;;;;;;2.27;1.17;;;12.10;99.90;;;;;;5078541;28;20193;-64
2023/08/10 05:12:05;;;;;;;2.70;1.57;;;12.10;99.90;;;;;;5078589;28;20294;-64
2023/08/10 05:14:31;;;;;;;1.73;0.93;;;12.10;99.90;;;;;;5075648;28;20275;-64
2023/08/10 05:16:56;;;;;;;2.33;1.30;;;12.10;99.90;;;;;;5097004;28;20931;-64
2023/08/10 05:19:22;;;;;;;2.83;1.60;;;12.30;99.90;;;;;;5102637;28;20256;-64
2023/08/10 05:21:47;;;;;;;3.10;1.60;;;12.30;99.90;;;;;;5075641;28;20191;-64
2023/08/10 05:24:13;;;;;;;3.00;1.40;;;12.30;99.90;;;;;;5092071;28;20212;-64
2023/08/10 05:26:39;;;;;;;1.80;1.23;;;12.40;99.90;;;;;;5085276;28;20647;-64
2023/08/10 05:29:04;;;;;;;2.37;1.20;;;12.50;99.90;;;;;;5095168;28;20213;-64
2023/08/10 05:31:30;;;;;;;4.70;2.40;;;12.50;99.90;;;;;;5099089;28;20230;-64
2023/08/10 05:33:55;;;;;;;4.40;1.67;;;12.60;99.90;;;;;;5093117;28;20252;-63
2023/08/10 05:36:21;;;;;;;3.87;2.00;;;12.70;99.90;;;;;;5083472;28;20228;-63
2023/08/10 05:38:47;;;;;;;5.33;1.87;;;12.70;99.90;;;;;;5082502;28;20173;-63
2023/08/10 05:41:13;;;;;;;4.13;2.57;;;12.80;99.90;;;;;;5092343;28;20270;-63
2023/08/10 05:43:39;;;;;;;4.97;2.60;;;12.90;99.90;;;;;;5098514;28;20886;-63
2023/08/10 05:46:05;;;;;;;6.30;2.60;;;13.20;99.90;;;;;;5073292;28;20706;-63
2023/08/10 05:48:30;;;;;;;5.43;3.07;;;13.30;99.90;;;;;;5086634;28;20552;-64
2023/08/10 05:50:56;;;;;;;10.40;2.80;;;13.50;99.90;;;;;;5087058;28;20200;-65
2023/08/10 05:53:22;;;;;;;3.97;2.30;;;13.50;99.90;;;;;;5094222;28;20180;-65
2023/08/10 05:55:49;;;;;;;2.87;1.97;;;13.50;99.90;;;;;;5086448;28;20193;-65
2023/08/10 05:58:14;;;;;;;4.13;2.57;;;13.60;99.90;;;;;;5104026;28;20665;-65
2023/08/10 06:00:40;;;;;;;5.20;2.20;;;13.70;99.90;;;;;;5086537;28;20509;-65
2023/08/10 06:03:06;;;;;;;4.73;2.27;;;13.80;99.90;;;;;;5106642;28;20176;-65
2023/08/10 06:05:32;;;;;;;3.47;2.07;;;14.00;99.90;;;;;;5086914;28;20212;-65
2023/08/10 06:07:58;;;;;;;4.17;2.63;;;14.20;99.90;;;;;;5085275;28;20189;-65
2023/08/10 06:10:25;;;;;;;3.77;2.60;;;14.30;99.90;;;;;;5094036;28;20951;-65
2023/08/10 06:12:51;;;;;;;3.90;2.20;;;14.60;99.90;;;;;;5100440;28;20426;-65
2023/08/10 06:15:17;;;;;;;5.43;2.30;;;14.80;99.90;;;;;;5087884;28;20427;-65
2023/08/10 06:17:43;;;;;;;6.07;2.73;;;15.00;99.90;;;;;;5096282;28;20176;-65
2023/08/10 06:20:13;;;;;;;4.50;2.27;;;15.10;99.90;;;;;;5094015;28;20180;-65
2023/08/10 06:22:41;;;;;;;4.17;2.40;;;15.30;99.90;;;;;;5080424;28;20204;-65
2023/08/10 06:25:08;;;;;;;4.97;2.60;;;15.40;99.90;;;;;;5093935;28;20455;-65
2023/08/10 06:27:35;;;;;;;5.27;2.40;;;15.60;99.90;;;;;;5075417;28;20458;-65
2023/08/10 06:30:01;;;;;;;6.30;2.70;;;15.80;99.90;;;;;;5072250;28;20458;-65
2023/08/10 06:32:26;;;;;;;5.10;2.10;;;16.00;99.90;;;;;;5075274;28;20427;-65
2023/08/10 06:34:54;;;;;;;4.20;2.37;;;16.10;99.90;;;;;;5079116;28;20246;-65
2023/08/10 06:37:20;;;;;;;4.13;2.07;;;16.20;99.90;;;;;;5081917;28;20660;-65
2023/08/10 06:39:48;;;;;;;3.70;2.13;;;16.30;99.90;;;;;;5088632;28;20422;-65
2023/08/10 06:42:14;;;;;;;2.43;1.63;;;16.40;99.90;;;;;;5076974;28;20172;-65
2023/08/10 06:44:40;;;;;;;3.97;2.10;;;16.50;99.90;;;;;;5089268;28;20474;-65
2023/08/10 06:47:05;;;;;;;6.20;2.50;;;16.60;99.90;;;;;;5092002;28;20836;-65
2023/08/10 06:49:31;;;;;;;5.00;2.03;;;16.70;99.90;;;;;;5102138;28;20228;-65
2023/08/10 06:51:57;;;;;;;4.97;2.53;;;16.80;99.90;;;;;;5098370;28;20210;-65
2023/08/10 06:54:24;;;;;;;9.43;2.70;;;16.70;99.90;;;;;;5085903;28;20208;-65
2023/08/10 06:56:49;;;;;;;4.07;2.33;;;16.70;99.90;;;;;;5098499;28;20196;-65
2023/08/10 06:59:15;;;;;;;3.77;2.27;;;16.80;99.90;;;;;;5097829;28;20407;-65
2023/08/10 07:01:41;;;;;;;4.20;2.50;;;16.90;99.90;;;;;;5087932;28;20191;-65
2023/08/10 07:04:07;;;;;;;4.83;2.10;;;16.90;99.90;;;;;;5098042;28;20665;-65
2023/08/10 07:06:33;;;;;;;5.10;2.47;;;17.00;99.90;;;;;;5094849;28;20238;-65
2023/08/10 07:08:58;;;;;;;4.77;2.13;;;17.00;99.90;;;;;;5102310;28;20426;-65
2023/08/10 07:11:24;;;;;;;3.63;2.03;;;17.10;99.90;;;;;;5070402;28;20235;-65
2023/08/10 07:13:50;;;;;;;3.80;1.60;;;17.30;99.90;;;;;;5094098;28;20176;-65
2023/08/10 07:16:16;;;;;;;5.43;1.87;;;17.30;99.90;;;;;;5080087;28;20557;-65
2023/08/10 07:18:42;;;;;;;10.43;2.20;;;17.30;99.90;;;;;;5092940;28;20525;-66
2023/08/10 07:21:07;;;;;;;5.10;2.33;;;17.50;99.90;;;;;;5079414;28;20517;-66
2023/08/10 07:23:33;;;;;;;3.10;1.90;;;17.70;99.90;;;;;;5083568;28;20235;-66
2023/08/10 07:25:59;;;;;;;5.20;2.27;;;17.70;99.90;;;;;;5072203;28;20195;-66
2023/08/10 07:28:26;;;;;;;2.80;1.97;;;17.90;99.90;;;;;;5072167;28;20503;-66
2023/08/10 07:30:52;;;;;;;3.20;2.00;;;18.20;99.90;;;;;;5074571;28;20193;-66
2023/08/10 07:33:18;;;;;;;2.37;1.43;;;18.50;99.90;;;;;;5081932;28;20417;-66
2023/08/10 07:35:45;;;;;;;3.17;2.27;;;18.70;99.90;;;;;;5073031;28;20419;-66
2023/08/10 07:38:12;;;;;;;3.03;1.87;;;18.80;99.90;;;;;;5072969;28;20181;-66
2023/08/10 07:40:37;;;;;;;3.50;1.70;;;18.90;99.90;;;;;;5073262;28;20423;-66
2023/08/10 07:43:03;;;;;;;4.43;2.53;;;18.80;99.90;;;;;;5072706;28;20426;-66
2023/08/10 07:45:29;;;;;;;4.77;2.57;;;18.80;99.90;;;;;;5072639;28;20220;-66
2023/08/10 07:47:54;;;;;;;3.07;2.17;;;19.00;99.90;;;;;;5074322;28;20277;-66
2023/08/10 07:50:20;;;;;;;2.40;1.60;;;19.50;99.90;;;;;;5076245;28;20205;-66
2023/08/10 07:52:45;;;;;;;3.13;1.63;;;19.90;99.90;;;;;;5086068;28;20176;-67
2023/08/10 07:55:15;;;;;;;3.60;2.20;;;20.00;99.90;;;;;;5086451;28;20196;-66
2023/08/10 07:57:41;;;;;;;3.97;1.40;;;19.90;99.90;;;;;;5085814;28;20182;-67
2023/08/10 08:00:09;;;;;;;4.17;1.90;;;20.00;99.90;;;;;;5083434;28;20774;-66
2023/08/10 08:02:35;;;;;;;3.80;1.50;;;20.20;99.90;;;;;;5088682;28;20195;-66
2023/08/10 08:05:01;;;;;;;2.83;1.50;;;20.10;99.90;;;;;;5089230;28;20427;-67
2023/08/10 08:07:30;;;;;;;4.07;1.77;;;20.50;99.90;;;;;;5091811;28;20943;-67
2023/08/10 08:09:56;;;;;;;4.83;2.07;;;20.50;99.90;;;;;;5085975;28;20258;-66
2023/08/10 08:12:22;;;;;;;3.40;2.17;;;20.60;99.90;;;;;;5081820;28;20423;-67
2023/08/10 08:14:48;;;;;;;5.13;1.73;;;20.60;99.90;;;;;;5073979;28;20468;-67
2023/08/10 08:17:13;;;;;;;2.20;1.33;;;20.80;99.90;;;;;;5095284;28;20658;-67
2023/08/10 08:19:40;;;;;;;5.10;1.60;;;20.80;99.90;;;;;;5084024;28;20699;-67
2023/08/10 08:22:05;;;;;;;3.93;1.20;;;21.30;99.90;;;;;;5069377;28;20173;-67
2023/08/10 08:24:31;;;;;;;3.50;1.50;;;21.50;99.90;;;;;;5083271;28;20426;-67
2023/08/10 08:26:57;;;;;;;4.40;1.87;;;22.00;99.90;;;;;;5051161;28;20192;-67
2023/08/10 08:29:23;;;;;;;2.63;1.60;;;22.30;99.90;;;;;;5079087;28;20199;-67
2023/08/10 08:31:48;;;;;;;3.03;1.40;;;22.90;99.90;;;;;;5078375;28;20206;-67
2023/08/10 08:34:15;;;;;;;2.27;1.23;;;22.90;99.90;;;;;;5084496;28;20765;-69
2023/08/10 08:36:41;;;;;;;2.33;1.17;;;23.80;99.60;;;;;;5081187;28;21038;-69
2023/08/10 08:39:09;;;;;;;2.83;1.20;;;24.20;98.80;;;;;;5095410;28;20722;-68
2023/08/10 08:41:38;;;;;;;6.28;2.10;;;25.10;96.90;;;;;;5078261;28;20230;-64
2023/08/10 08:44:08;;;;;;;2.92;1.30;;;25.20;96.40;;;;;;5088084;28;20179;-64
2023/08/10 08:46:41;;;;;;;3.22;1.30;;;25.60;95.80;;;;;;5098500;28;20275;-64
2023/08/10 08:49:07;;;;;;;2.42;1.55;;;26.00;94.70;;;;;;5089860;28;20199;-64
2023/08/10 08:51:33;;;;;;;3.20;1.88;;;26.20;93.90;;;;;;5090112;28;20623;-65
2023/08/10 08:54:02;;;;;;;2.42;1.20;;;26.40;93.30;;;;;;5071597;28;20184;-65
2023/08/10 08:56:28;;;;;;;2.88;1.60;;;26.50;92.90;;;;;;5074112;28;20207;-64
2023/08/10 08:58:54;;;;;;;2.58;1.25;;;26.90;91.40;;;;;;5089862;28;20176;-64
2023/08/10 09:01:20;;;;;;;4.22;1.73;;;26.50;93.20;;;;;;5085789;28;20186;-65
2023/08/10 09:03:48;;;;;;;3.75;1.58;;;26.80;92.20;;;;;;5076267;28;20180;-66
2023/08/10 09:06:14;;;;;;;3.28;1.45;;;26.90;92.60;;;;;;5078557;28;20492;-66
2023/08/10 09:08:41;;;;;;;4.88;1.58;;;26.90;91.90;;;;;;5070961;28;20642;-67
2023/08/10 09:11:07;;;;;;;3.13;1.50;;;27.20;91.60;;;;;;5077357;28;20642;-64
2023/08/10 09:13:33;;;;;;;2.28;1.25;;;27.50;89.30;;;;;;5069975;28;20227;-65
2023/08/10 09:16:05;;;;;;;4.55;1.73;;;27.40;89.00;;;;;;5084516;28;20190;-65
2023/08/10 09:18:35;;;;;;;2.35;1.40;;;27.60;88.70;;;;;;5082577;28;20531;-64
2023/08/10 09:21:30;;;;;;;2.67;1.55;;;26.90;85.40;;;;;;5081893;28;20177;-65
2023/08/10 09:23:55;;;;;;;5.60;2.30;;;25.60;88.60;;;;;;5076002;28;20286;-65
2023/08/10 09:26:22;;;;;;;6.60;1.73;;;25.70;87.60;;;;;;5070726;28;20184;-66
2023/08/10 09:28:49;;;;;;;2.47;1.25;;;25.90;87.20;;;;;;5082739;28;20198;-67
2023/08/10 09:31:24;;;;;;;5.47;1.30;;;26.00;88.60;;;;;;5073858;28;20250;-67
2023/08/10 09:33:58;;;;;;;4.07;1.23;;;25.50;88.60;;;;;;5081120;28;20175;-65
2023/08/10 09:36:25;;;;;;;2.35;1.10;;;25.80;87.30;;;;;;5070687;28;20577;-66
2023/08/10 09:38:52;;;;;;;3.42;1.35;;;26.10;87.30;;;;;;5084737;28;20263;-66
2023/08/10 09:41:20;;;;;;;3.05;1.40;;;26.20;85.50;;;;;;5089096;28;20207;-66
2023/08/10 09:43:46;;;;;;;5.93;1.63;;;26.60;84.30;;;;;;5088679;28;20663;-66
2023/08/10 09:46:16;;;;;;;3.75;1.40;;;26.40;79.60;;;;;;5070517;28;20362;-66
2023/08/10 09:48:50;;;;;;;2.80;1.25;;;26.70;80.50;;;;;;5086819;28;20233;-66
2023/08/10 09:51:16;;;;;;;2.03;1.10;;;26.70;80.00;;;;;;5074491;28;20266;-66
2023/08/10 09:53:42;;;;;;;3.22;1.45;;;26.60;80.70;;;;;;5073957;28;20176;-66
2023/08/10 09:56:08;;;;;;;2.40;1.30;;;26.60;77.80;;;;;;5073923;28;20196;-66
2023/08/10 09:58:38;;;;;;;3.33;1.52;;;26.80;77.90;;;;;;5081561;28;20653;-66
2023/08/10 10:01:08;;;;;;;3.00;1.30;;;26.20;79.70;;;;;;5083259;28;20375;-66
2023/08/10 10:03:34;;;;;;;4.03;1.45;;;26.70;80.40;;;;;;5080168;28;20634;-66
2023/08/10 10:06:01;;;;;;;2.33;1.23;;;27.40;78.70;;;;;;5083818;28;20191;-66
2023/08/10 10:08:33;;;;;;;2.20;1.25;;;27.30;77.10;;;;;;5076147;28;20218;-66
2023/08/10 10:11:03;;;;;;;1.83;1.05;;;26.90;78.40;;;;;;5073943;28;20201;-66
2023/08/10 10:13:30;;;;;;;2.25;1.13;;;26.30;78.30;;;;;;5086050;28;20630;-65
2023/08/10 10:15:56;;;;;;;2.95;1.30;;;25.80;78.10;;;;;;5084617;28;20218;-66
2023/08/10 10:18:25;;;;;;;2.97;1.27;;;25.00;82.70;;;;;;5087610;28;20181;-65
2023/08/10 10:20:52;;;;;;;5.77;1.37;;;24.80;83.40;;;;;;5088371;28;20585;-65
2023/08/10 10:23:19;;;;;;;1.97;0.97;;;24.80;83.00;;;;;;5086545;28;20177;-65
2023/08/10 10:26:00;;;;;;;2.73;1.20;;;24.60;83.80;;;;;;5074152;28;20659;-65
2023/08/10 10:28:28;;;;;;;3.27;1.60;;;24.60;82.60;;;;;;5093697;28;20256;-65
2023/08/10 10:31:03;;;;;;;3.93;1.60;;;24.40;82.50;;;;;;5080200;28;20208;-65
2023/08/10 10:33:29;;;;;;;2.93;1.30;;;24.40;83.60;;;;;;5091715;28;20421;-65
2023/08/10 10:36:18;;;;;;;3.80;1.90;;;24.30;84.40;;;;;;5077898;28;20698;-65
2023/08/10 10:38:52;;;;;;;2.30;1.40;;;24.20;83.60;;;;;;5093330;28;20190;-65
2023/08/10 10:41:29;;;;;;;2.33;1.10;;;24.40;81.70;;;;;;5081882;28;20414;-65
2023/08/10 10:43:57;;;;;;;3.40;1.30;;;24.20;82.40;;;;;;5076009;28;20430;-65
2023/08/10 10:46:31;;;;;;;2.73;1.20;;;24.20;84.20;;;;;;5073491;28;20911;-65
2023/08/10 10:48:57;;;;;;;4.40;1.17;;;24.40;84.20;;;;;;5086901;28;20786;-65
2023/08/10 10:51:23;;;;;;;6.57;1.93;;;24.40;82.60;;;;;;5084898;28;20462;-65
2023/08/10 10:53:53;;;;;;;6.73;1.50;;;24.40;83.30;;;;;;5092961;28;20505;-65
2023/08/10 10:56:19;;;;;;;2.47;1.20;;;24.60;80.80;;;;;;5081119;28;20435;-65
2023/08/10 10:58:47;;;;;;;2.43;1.00;;;24.60;81.40;;;;;;5072284;28;20443;-65
2023/08/10 11:01:19;;;;;;;2.37;1.37;;;24.50;81.50;;;;;;5085665;28;20426;-65
2023/08/10 11:03:53;;;;;;;4.17;1.60;;;24.70;82.30;;;;;;5073058;28;20418;-65
2023/08/10 11:06:21;;;;;;;3.13;1.30;;;24.70;81.80;;;;;;5073025;28;20425;-65
2023/08/10 11:08:54;;;;;;;4.70;1.30;;;24.70;83.50;;;;;;5082182;28;20722;-65
2023/08/10 11:11:24;;;;;;;3.13;1.30;;;24.50;82.00;;;;;;5082120;28;20936;-65
2023/08/10 11:13:51;;;;;;;3.00;1.83;;;24.60;81.80;;;;;;5073479;28;20422;-65
2023/08/10 11:16:17;;;;;;;8.63;1.23;;;24.70;81.60;;;;;;5084442;28;20414;-65
2023/08/10 11:18:45;;;;;;;4.33;1.50;;;24.70;81.60;;;;;;5092076;28;20426;-65
2023/08/10 11:21:12;;;;;;;2.90;1.50;;;24.80;82.60;;;;;;5079591;28;20176;-65
2023/08/10 11:23:38;;;;;;;3.97;1.70;;;25.00;81.20;;;;;;5092548;28;20756;-65
2023/08/10 11:26:05;;;;;;;5.27;2.20;;;24.60;84.40;;;;;;5089711;28;20418;-65
2023/08/10 11:28:32;;;;;;;3.50;1.73;;;24.80;82.70;;;;;;5072256;28;20429;-65
2023/08/10 11:31:05;;;;;;;3.80;1.60;;;24.60;81.60;;;;;;5073653;28;20498;-65
2023/08/10 11:33:30;;;;;;;3.30;1.80;;;24.70;81.20;;;;;;5074223;28;20418;-65
2023/08/10 11:35:58;;;;;;;2.60;1.37;;;24.70;81.20;;;;;;5076228;28;20418;-65
2023/08/10 11:38:24;;;;;;;2.70;1.50;;;24.50;79.30;;;;;;5072576;28;20187;-65
2023/08/10 11:40:50;;;;;;;4.30;1.70;;;24.90;79.30;;;;;;5075128;28;20986;-65
2023/08/10 11:43:20;;;;;;;2.60;1.43;;;25.30;78.40;;;;;;5081867;28;20431;-65
2023/08/10 11:45:46;;;;;;;4.60;1.33;;;25.50;79.20;;;;;;5085563;28;20188;-66
2023/08/10 11:48:15;;;;;;;3.20;1.40;;;25.60;79.60;;;;;;5082492;28;20172;-64
2023/08/10 11:50:43;;;;;;;2.37;1.20;;;25.70;80.10;;;;;;5096609;28;20457;-64
2023/08/10 11:53:10;;;;;;;2.57;1.33;;;25.40;82.50;;;;;;5082164;28;20204;-64
2023/08/10 11:55:47;;;;;;;2.70;1.17;;;25.50;80.10;;;;;;5092792;28;20200;-64
2023/08/10 11:58:14;;;;;;;2.03;1.07;;;25.50;79.70;;;;;;5079062;28;20508;-64
2023/08/10 12:00:41;;;;;;;3.23;1.40;;;25.40;81.90;;;;;;5087746;28;20419;-64
2023/08/10 12:03:12;;;;;;;3.13;1.60;;;25.50;80.20;;;;;;5103033;28;20176;-65
2023/08/10 12:05:49;;;;;;;2.33;1.20;;;25.20;80.30;;;;;;5085952;28;20930;-64
2023/08/10 12:08:23;;;;;;;5.03;1.70;;;25.40;79.30;;;;;;5092108;28;20178;-65
2023/08/10 12:11:04;;;;;;;2.43;1.30;;;25.80;77.90;;;;;;5093579;28;20204;-64
2023/08/10 12:13:30;;;;;;;2.57;1.20;;;25.80;78.10;;;;;;5094849;28;20184;-65
2023/08/10 12:15:58;;;;;;;5.37;1.17;;;25.70;78.70;;;;;;5095518;28;20229;-65
2023/08/10 12:18:24;;;;;;;3.77;1.60;;;25.80;78.40;;;;;;5091560;28;20181;-65
2023/08/10 12:20:51;;;;;;;2.93;1.60;;;25.80;79.60;;;;;;5098635;28;20805;-66
2023/08/10 12:23:17;;;;;;;2.40;1.33;;;25.70;79.50;;;;;;5088432;28;20458;-67
2023/08/10 12:25:44;;;;;;;2.30;1.20;;;25.40;81.00;;;;;;5095032;28;20179;-65
2023/08/10 12:28:10;;;;;;;2.53;1.20;;;25.80;77.90;;;;;;5093622;28;20664;-65
2023/08/10 12:30:37;;;;;;;2.33;1.33;;;25.80;78.30;;;;;;5092218;28;20306;-66
2023/08/10 12:33:03;;;;;;;3.87;1.40;;;25.50;81.70;;;;;;5087495;28;20659;-65
2023/08/10 12:35:29;;;;;;;2.63;1.40;;;25.70;78.70;;;;;;5087978;28;20208;-66
2023/08/10 12:37:54;;;;;;;7.13;1.50;;;25.90;78.60;;;;;;5089968;28;20286;-65
2023/08/10 12:40:21;;;;;;;5.63;1.93;;;25.90;81.90;;;;;;5077041;28;20187;-65
2023/08/10 12:42:47;;;;;;;2.53;1.53;;;26.20;81.30;;;;;;5086510;28;20661;-65
2023/08/10 12:45:13;;;;;;;2.90;1.10;;;26.00;82.00;;;;;;5098842;28;20179;-65
2023/08/10 12:47:40;;;;;;;3.77;1.30;;;26.20;82.40;;;;;;5091148;28;20289;-65